createdAt,value
2023-04-18T00:02:27.612Z,5.91
2023-04-18T00:07:30.795Z,5.62
2023-04-18T00:12:32.646Z,5.93
2023-04-18T00:17:34.547Z,5.88
2023-04-18T00:22:37.898Z,5.79
2023-04-18T00:27:39.515Z,5.78
2023-04-18T00:32:41.133Z,6.07
2023-04-18T00:37:44.067Z,5.89
2023-04-18T00:42:45.619Z,5.99
2023-04-18T00:47:47.194Z,6.18
2023-04-18T00:52:50.691Z,6.17
2023-04-18T00:57:52.262Z,6.15
2023-04-18T01:02:54.099Z,5.98
2023-04-18T01:07:57.136Z,6.12
2023-04-18T01:13:15.239Z,6.14
2023-04-18T01:18:17.666Z,5.93
2023-04-18T01:23:21.126Z,5.70
2023-04-18T01:28:24.157Z,5.95
2023-04-18T01:33:25.728Z,5.70
2023-04-18T01:38:27.463Z,5.67
2023-04-18T01:43:30.362Z,5.90
2023-04-18T01:48:31.931Z,5.51
2023-04-18T01:53:33.485Z,5.59
2023-04-18T01:58:36.399Z,5.62
2023-04-18T02:03:38.437Z,6.24
2023-04-18T02:08:40.292Z,6.23
2023-04-18T02:13:43.201Z,5.99
2023-04-18T02:18:44.852Z,6.12
2023-04-18T02:23:46.365Z,5.99
2023-04-18T02:28:49.385Z,5.86
2023-04-18T02:33:50.901Z,5.76
2023-04-18T02:38:52.429Z,5.80
2023-04-18T02:43:55.327Z,5.51
2023-04-18T02:48:56.898Z,5.94
2023-04-18T02:53:58.504Z,5.95
2023-04-18T02:59:01.434Z,5.56
2023-04-18T03:04:03.096Z,5.50
2023-04-18T03:09:04.928Z,5.96
2023-04-18T03:14:07.800Z,5.94
2023-04-18T03:19:09.356Z,5.86
2023-04-18T03:24:12.212Z,5.99
2023-04-18T03:29:15.332Z,5.52
2023-04-18T03:34:16.855Z,5.70
2023-04-18T03:39:18.490Z,6.05
2023-04-18T03:44:21.762Z,5.59
2023-04-18T03:49:23.307Z,5.85
2023-04-18T03:54:24.858Z,5.45
2023-04-18T03:59:27.843Z,5.88
2023-04-18T04:04:29.479Z,5.60
2023-04-18T04:09:31.024Z,5.35
2023-04-18T04:14:33.949Z,5.47
2023-04-18T04:19:35.490Z,5.11
2023-04-18T04:24:37.090Z,5.39
2023-04-18T04:29:40.067Z,5.75
2023-04-18T04:34:41.624Z,5.26
2023-04-18T04:39:43.189Z,5.46
2023-04-18T04:44:46.222Z,5.55
2023-04-18T04:49:47.839Z,5.04
2023-04-18T04:54:51.243Z,5.14
2023-04-18T04:59:54.120Z,5.31
2023-04-18T05:04:55.643Z,5.62
2023-04-18T05:09:57.189Z,5.51
2023-04-18T05:15:00.089Z,5.76
2023-04-18T05:20:01.651Z,5.11
2023-04-18T05:25:03.671Z,5.09
2023-04-18T05:30:07.992Z,5.48
2023-04-18T05:35:09.568Z,5.28
2023-04-18T05:40:12.717Z,5.78
2023-04-18T05:45:15.817Z,5.32
2023-04-18T05:50:17.350Z,5.27
2023-04-18T05:55:18.981Z,5.16
2023-04-18T06:00:22.243Z,5.49
2023-04-18T06:05:24.117Z,5.37
2023-04-18T06:10:25.883Z,5.06
2023-04-18T06:15:29.116Z,5.24
2023-04-18T06:20:30.738Z,5.09
2023-04-18T06:25:32.315Z,5.32
2023-04-18T06:30:35.223Z,5.65
2023-04-18T06:35:37.346Z,5.58
2023-04-18T06:40:38.899Z,5.75
2023-04-18T06:45:41.936Z,5.59
2023-04-18T06:50:43.616Z,6.24
2023-04-18T06:55:45.166Z,5.87
2023-04-18T07:00:48.075Z,6.01
2023-04-18T07:05:49.700Z,5.53
2023-04-18T07:10:51.597Z,5.85
2023-04-18T07:15:54.674Z,6.25
2023-04-18T07:20:56.186Z,5.97
2023-04-18T07:25:57.761Z,6.19
2023-04-18T07:31:01.353Z,5.76
2023-04-18T07:36:03.094Z,6.26
2023-04-18T07:41:04.769Z,6.37
2023-04-18T07:46:08.121Z,6.30
2023-04-18T07:51:11.555Z,5.74
2023-04-18T07:56:13.198Z,6.17
2023-04-18T08:01:16.210Z,6.31
2023-04-18T08:06:17.776Z,6.44
2023-04-18T08:11:19.358Z,6.97
2023-04-18T08:16:22.302Z,6.82
2023-04-18T08:21:23.891Z,7.02
2023-04-18T08:26:25.458Z,7.17
2023-04-18T08:31:28.418Z,7.06
2023-04-18T08:36:29.990Z,6.94
2023-04-18T08:41:36.863Z,6.86
2023-04-18T08:46:39.811Z,7.38
2023-04-18T08:51:44.068Z,7.30
2023-04-18T08:56:45.647Z,7.26
2023-04-18T09:01:53.127Z,7.43
2023-04-18T09:06:54.733Z,6.93
2023-04-18T09:12:06.069Z,7.32
2023-04-18T09:17:10.556Z,7.30
2023-04-18T09:22:13.178Z,7.68
2023-04-18T09:27:14.716Z,7.93
2023-04-18T09:32:23.217Z,8.10
2023-04-18T09:37:25.992Z,8.77
2023-04-18T09:42:35.997Z,8.41
2023-04-18T09:47:39.757Z,8.52
2023-04-18T09:52:43.050Z,8.45
2023-04-18T09:57:46.386Z,8.56
2023-04-18T10:02:51.860Z,8.76
2023-04-18T10:07:54.631Z,9.38
2023-04-18T10:12:58.008Z,9.81
2023-04-18T10:18:06.041Z,9.35
2023-04-18T10:23:37.785Z,9.19
2023-04-18T10:28:53.832Z,9.55
2023-04-18T10:39:20.373Z,10.04
2023-04-18T10:44:22.579Z,9.69
2023-04-18T10:49:28.409Z,10.07
2023-04-18T10:54:37.584Z,9.24
2023-04-18T10:59:42.025Z,10.63
2023-04-18T11:04:51.129Z,10.51
2023-04-18T11:09:54.050Z,10.56
2023-04-18T11:14:55.616Z,10.34
2023-04-18T11:20:02.855Z,10.43
2023-04-18T11:25:07.827Z,10.30
2023-04-18T11:30:10.038Z,10.11
2023-04-18T11:35:14.145Z,9.92
2023-04-18T11:40:15.832Z,10.47
2023-04-18T11:45:17.404Z,10.07
2023-04-18T11:50:20.374Z,9.97
2023-04-18T11:55:23.500Z,9.80
2023-04-18T12:00:32.879Z,9.74
2023-04-18T12:05:37.365Z,10.32
2023-04-18T12:10:46.426Z,10.75
2023-04-18T12:15:48.081Z,10.36
2023-04-18T12:20:52.340Z,10.30
2023-04-18T12:25:58.919Z,10.51
2023-04-18T12:31:00.825Z,10.63
2023-04-18T12:36:04.306Z,11.20
2023-04-18T12:41:05.847Z,10.91
2023-04-18T12:46:07.406Z,11.32
2023-04-18T12:51:10.262Z,10.53
2023-04-18T12:56:11.836Z,11.52
2023-04-18T13:01:14.172Z,10.80
2023-04-18T13:06:17.487Z,10.90
2023-04-18T13:11:19.029Z,10.30
2023-04-18T13:16:20.655Z,10.46
2023-04-18T13:21:23.547Z,10.69
2023-04-18T13:26:25.141Z,11.09
2023-04-18T13:31:26.684Z,10.79
2023-04-18T13:36:29.644Z,10.16
2023-04-18T13:41:31.538Z,10.98
2023-04-18T13:46:33.154Z,10.57
2023-04-18T13:51:36.103Z,11.14
2023-04-18T13:56:37.653Z,10.88
2023-04-18T14:01:39.238Z,10.30
2023-04-18T14:06:42.253Z,10.67
2023-04-18T14:11:44.453Z,10.91
2023-04-18T14:16:46.045Z,10.78
2023-04-18T14:21:48.980Z,10.16
2023-04-18T14:26:50.521Z,9.83
2023-04-18T14:31:52.078Z,10.11
2023-04-18T14:36:54.924Z,10.33
2023-04-18T14:41:56.502Z,9.78
2023-04-18T14:46:58.075Z,9.93
2023-04-18T14:52:01.034Z,10.04
2023-04-18T14:57:02.570Z,10.02
2023-04-18T15:02:04.263Z,9.61
2023-04-18T15:07:07.190Z,10.42
2023-04-18T15:12:08.733Z,10.14
2023-04-18T15:17:10.319Z,10.59
2023-04-18T15:22:13.245Z,10.90
2023-04-18T15:27:14.966Z,10.88
2023-04-18T15:32:16.616Z,9.92
2023-04-18T15:37:26.241Z,10.01
2023-04-18T15:42:27.800Z,10.61
2023-04-18T15:47:29.401Z,10.25
2023-04-18T15:52:32.303Z,10.68
2023-04-18T15:57:33.834Z,10.37
2023-04-18T16:02:35.505Z,10.79
2023-04-18T16:07:38.551Z,10.77
2023-04-18T16:12:40.293Z,9.81
2023-04-18T16:17:41.846Z,9.94
2023-04-18T16:22:44.774Z,9.32
2023-04-18T16:27:46.301Z,9.39
2023-04-18T16:32:47.901Z,9.62
2023-04-18T16:37:50.822Z,9.58
2023-04-18T16:42:52.350Z,9.19
2023-04-18T16:47:53.959Z,9.53
2023-04-18T16:52:56.860Z,9.50
2023-04-18T16:57:58.416Z,9.70
2023-04-18T17:03:00.006Z,9.80
2023-04-18T17:08:03.135Z,9.93
2023-04-18T17:13:04.696Z,9.43
2023-04-18T17:18:06.274Z,9.61
2023-04-18T17:23:09.193Z,9.74
2023-04-18T17:28:10.763Z,9.55
2023-04-18T17:33:12.277Z,9.23
2023-04-18T17:38:15.217Z,9.27
2023-04-18T17:43:16.756Z,8.85
2023-04-18T17:48:18.282Z,9.43
2023-04-18T17:53:21.300Z,8.82
2023-04-18T17:58:22.840Z,9.07
2023-04-18T18:03:24.596Z,8.87
2023-04-18T18:08:27.648Z,8.61
2023-04-18T18:13:29.241Z,8.72
2023-04-18T18:18:30.834Z,8.63
2023-04-18T18:23:33.692Z,8.84
2023-04-18T18:28:35.494Z,8.44
2023-04-18T18:33:37.049Z,8.60
2023-04-18T18:38:39.967Z,8.83
2023-04-18T18:43:41.480Z,8.84
2023-04-18T18:48:43.167Z,8.56
2023-04-18T18:53:46.221Z,8.73
2023-04-18T18:58:47.776Z,8.52
2023-04-18T19:03:49.483Z,8.49
2023-04-18T19:08:52.601Z,8.34
2023-04-18T19:13:54.175Z,8.43
2023-04-18T19:18:55.719Z,8.34
2023-04-18T19:23:58.625Z,8.44
2023-04-18T19:29:00.173Z,8.48
2023-04-18T19:34:01.850Z,8.26
2023-04-18T19:39:04.869Z,8.43
2023-04-18T19:44:06.450Z,8.25
2023-04-18T19:49:08.018Z,8.31
2023-04-18T19:54:10.906Z,8.72
2023-04-18T19:59:12.760Z,8.61
2023-04-18T20:04:14.653Z,8.30
2023-04-18T20:09:17.815Z,8.66
2023-04-18T20:14:19.369Z,8.34
2023-04-18T20:19:20.948Z,8.46
2023-04-18T20:24:23.910Z,8.49
2023-04-18T20:29:26.148Z,8.57
2023-04-18T20:34:27.833Z,8.55
2023-04-18T20:39:30.723Z,8.71
2023-04-18T20:44:32.245Z,8.49
2023-04-18T20:49:33.792Z,8.44
2023-04-18T20:54:36.864Z,8.31
2023-04-18T20:59:38.445Z,8.20
2023-04-18T21:04:40.519Z,8.02
2023-04-18T21:09:43.563Z,8.16
2023-04-18T21:14:45.115Z,8.23
2023-04-18T21:19:46.708Z,7.92
2023-04-18T21:24:49.619Z,8.01
2023-04-18T21:29:51.177Z,7.95
2023-04-18T21:34:52.729Z,7.98
2023-04-18T21:39:55.593Z,7.51
2023-04-18T21:44:57.120Z,7.46
2023-04-18T21:49:58.687Z,7.60
2023-04-18T21:55:01.970Z,7.91
2023-04-18T22:00:04.070Z,7.55
2023-04-18T22:05:06.173Z,7.30
2023-04-18T22:10:09.971Z,7.71
2023-04-18T22:15:11.793Z,7.73
2023-04-18T22:20:13.378Z,7.80
2023-04-18T22:25:16.528Z,7.44
2023-04-18T22:30:18.073Z,7.41
2023-04-18T22:35:19.727Z,7.83
2023-04-18T22:40:22.679Z,7.69
2023-04-18T22:45:24.202Z,7.31
2023-04-18T22:50:25.869Z,7.61
2023-04-18T22:55:28.734Z,7.66
2023-04-18T23:00:30.283Z,7.55
2023-04-18T23:05:31.837Z,7.71
2023-04-18T23:10:35.054Z,7.03
2023-04-18T23:15:36.607Z,7.39
2023-04-18T23:20:38.185Z,7.55
2023-04-18T23:25:41.050Z,7.30
2023-04-18T23:30:42.610Z,7.49
2023-04-18T23:35:44.238Z,7.28
2023-04-18T23:40:47.117Z,7.54
2023-04-18T23:45:48.629Z,7.52
2023-04-18T23:50:51.492Z,6.88
2023-04-18T23:55:54.456Z,7.51
